sensor_id;sensor_type;location;lat;lon;timestamp;temperature;humidity
52899;DHT22;38763;53.096;6.062;2023-07-29T00:01:43;19.00;99.90
52899;DHT22;38763;53.096;6.062;2023-07-29T00:04:09;19.10;99.90
52899;DHT22;38763;53.096;6.062;2023-07-29T00:06:35;19.00;99.90
52899;DHT22;38763;53.096;6.062;2023-07-29T00:09:01;19.00;99.90
52899;DHT22;38763;53.096;6.062;2023-07-29T00:11:28;19.00;99.90
52899;DHT22;38763;53.096;6.062;2023-07-29T00:13:53;19.00;99.90
52899;DHT22;38763;53.096;6.062;2023-07-29T00:16:19;19.00;99.90
52899;DHT22;38763;53.096;6.062;2023-07-29T00:18:48;18.90;99.90
52899;DHT22;38763;53.096;6.062;2023-07-29T00:21:13;18.90;99.90
52899;DHT22;38763;53.096;6.062;2023-07-29T00:23:39;18.90;99.90
52899;DHT22;38763;53.096;6.062;2023-07-29T00:26:05;18.90;99.90
52899;DHT22;38763;53.096;6.062;2023-07-29T00:28:31;18.90;99.90
52899;DHT22;38763;53.096;6.062;2023-07-29T00:30:56;18.90;99.90
52899;DHT22;38763;53.096;6.062;2023-07-29T00:33:22;18.80;99.90
52899;DHT22;38763;53.096;6.062;2023-07-29T00:35:48;18.80;99.90
52899;DHT22;38763;53.096;6.062;2023-07-29T00:38:13;18.90;99.90
52899;DHT22;38763;53.096;6.062;2023-07-29T00:40:39;18.90;99.90
52899;DHT22;38763;53.096;6.062;2023-07-29T00:43:05;18.90;99.90
52899;DHT22;38763;53.096;6.062;2023-07-29T00:45:32;18.90;99.90
52899;DHT22;38763;53.096;6.062;2023-07-29T00:47:59;18.80;99.90
52899;DHT22;38763;53.096;6.062;2023-07-29T00:50:25;18.80;99.90
52899;DHT22;38763;53.096;6.062;2023-07-29T00:52:53;18.80;99.90
52899;DHT22;38763;53.096;6.062;2023-07-29T00:55:19;18.80;99.90
52899;DHT22;38763;53.096;6.062;2023-07-29T00:57:45;18.70;99.90
52899;DHT22;38763;53.096;6.062;2023-07-29T01:00:14;18.70;99.90
52899;DHT22;38763;53.096;6.062;2023-07-29T01:02:42;18.70;99.90
52899;DHT22;38763;53.096;6.062;2023-07-29T01:05:08;18.70;99.90
52899;DHT22;38763;53.096;6.062;2023-07-29T01:15:36;18.60;99.90
52899;DHT22;38763;53.096;6.062;2023-07-29T01:18:08;18.50;99.90
52899;DHT22;38763;53.096;6.062;2023-07-29T01:20:38;18.50;99.90
52899;DHT22;38763;53.096;6.062;2023-07-29T01:23:05;18.40;99.90
52899;DHT22;38763;53.096;6.062;2023-07-29T01:25:31;18.40;99.90
52899;DHT22;38763;53.096;6.062;2023-07-29T01:27:57;18.40;99.90
52899;DHT22;38763;53.096;6.062;2023-07-29T01:30:30;18.30;99.90
52899;DHT22;38763;53.096;6.062;2023-07-29T01:33:19;18.30;99.90
52899;DHT22;38763;53.096;6.062;2023-07-29T01:35:48;18.30;99.90
52899;DHT22;38763;53.096;6.062;2023-07-29T01:38:20;18.20;99.90
52899;DHT22;38763;53.096;6.062;2023-07-29T01:40:50;18.20;99.90
52899;DHT22;38763;53.096;6.062;2023-07-29T01:43:17;18.20;99.90
52899;DHT22;38763;53.096;6.062;2023-07-29T01:45:48;18.10;99.90
52899;DHT22;38763;53.096;6.062;2023-07-29T01:48:14;18.10;99.90
52899;DHT22;38763;53.096;6.062;2023-07-29T01:50:40;18.10;99.90
52899;DHT22;38763;53.096;6.062;2023-07-29T01:53:06;18.10;99.90
52899;DHT22;38763;53.096;6.062;2023-07-29T01:55:31;18.10;99.90
52899;DHT22;38763;53.096;6.062;2023-07-29T01:57:57;18.10;99.90
52899;DHT22;38763;53.096;6.062;2023-07-29T02:00:23;18.00;99.90
52899;DHT22;38763;53.096;6.062;2023-07-29T02:02:49;18.00;99.90
52899;DHT22;38763;53.096;6.062;2023-07-29T02:05:15;17.90;99.90
52899;DHT22;38763;53.096;6.062;2023-07-29T02:07:40;17.90;99.90
52899;DHT22;38763;53.096;6.062;2023-07-29T02:10:06;17.80;99.90
52899;DHT22;38763;53.096;6.062;2023-07-29T02:12:33;17.80;99.90
52899;DHT22;38763;53.096;6.062;2023-07-29T02:14:58;17.80;99.90
52899;DHT22;38763;53.096;6.062;2023-07-29T02:17:24;17.80;99.90
52899;DHT22;38763;53.096;6.062;2023-07-29T02:19:51;17.80;99.90
52899;DHT22;38763;53.096;6.062;2023-07-29T02:22:17;17.70;99.90
52899;DHT22;38763;53.096;6.062;2023-07-29T02:24:43;17.70;99.90
52899;DHT22;38763;53.096;6.062;2023-07-29T02:27:09;17.80;99.90
52899;DHT22;38763;53.096;6.062;2023-07-29T02:29:35;17.70;99.90
52899;DHT22;38763;53.096;6.062;2023-07-29T02:32:00;17.70;99.90
52899;DHT22;38763;53.096;6.062;2023-07-29T02:34:26;17.70;99.90
52899;DHT22;38763;53.096;6.062;2023-07-29T02:36:52;17.70;99.90
52899;DHT22;38763;53.096;6.062;2023-07-29T02:39:17;17.70;99.90
52899;DHT22;38763;53.096;6.062;2023-07-29T02:41:43;17.70;99.90
52899;DHT22;38763;53.096;6.062;2023-07-29T02:44:09;17.60;99.90
52899;DHT22;38763;53.096;6.062;2023-07-29T02:46:34;17.60;99.90
52899;DHT22;38763;53.096;6.062;2023-07-29T02:49:02;17.60;99.90
52899;DHT22;38763;53.096;6.062;2023-07-29T02:51:28;17.60;99.90
52899;DHT22;38763;53.096;6.062;2023-07-29T02:53:54;17.50;99.90
52899;DHT22;38763;53.096;6.062;2023-07-29T02:56:20;17.50;99.90
52899;DHT22;38763;53.096;6.062;2023-07-29T02:58:45;17.50;99.90
52899;DHT22;38763;53.096;6.062;2023-07-29T03:01:11;17.50;99.90
52899;DHT22;38763;53.096;6.062;2023-07-29T03:03:37;17.50;99.90
52899;DHT22;38763;53.096;6.062;2023-07-29T03:06:07;17.40;99.90
52899;DHT22;38763;53.096;6.062;2023-07-29T03:08:34;17.40;99.90
52899;DHT22;38763;53.096;6.062;2023-07-29T03:11:08;17.30;99.90
52899;DHT22;38763;53.096;6.062;2023-07-29T03:13:34;17.40;99.90
52899;DHT22;38763;53.096;6.062;2023-07-29T03:16:17;17.30;99.90
52899;DHT22;38763;53.096;6.062;2023-07-29T03:18:43;17.30;99.90
52899;DHT22;38763;53.096;6.062;2023-07-29T03:21:10;17.30;99.90
52899;DHT22;38763;53.096;6.062;2023-07-29T03:23:36;17.30;99.90
52899;DHT22;38763;53.096;6.062;2023-07-29T03:26:03;17.30;99.90
52899;DHT22;38763;53.096;6.062;2023-07-29T03:28:36;17.20;99.90
52899;DHT22;38763;53.096;6.062;2023-07-29T03:31:02;17.30;99.90
52899;DHT22;38763;53.096;6.062;2023-07-29T03:33:28;17.20;99.90
52899;DHT22;38763;53.096;6.062;2023-07-29T03:35:54;17.20;99.90
52899;DHT22;38763;53.096;6.062;2023-07-29T03:38:20;17.10;99.90
52899;DHT22;38763;53.096;6.062;2023-07-29T03:40:46;17.10;99.90
52899;DHT22;38763;53.096;6.062;2023-07-29T03:43:12;17.10;99.90
52899;DHT22;38763;53.096;6.062;2023-07-29T03:45:39;17.20;99.90
52899;DHT22;38763;53.096;6.062;2023-07-29T03:48:05;17.10;99.90
52899;DHT22;38763;53.096;6.062;2023-07-29T03:50:33;17.10;99.90
52899;DHT22;38763;53.096;6.062;2023-07-29T03:52:59;17.20;99.90
52899;DHT22;38763;53.096;6.062;2023-07-29T03:55:25;17.10;99.90
52899;DHT22;38763;53.096;6.062;2023-07-29T03:57:50;17.10;99.90
52899;DHT22;38763;53.096;6.062;2023-07-29T04:00:16;17.10;99.90
52899;DHT22;38763;53.096;6.062;2023-07-29T04:02:42;17.10;99.90
52899;DHT22;38763;53.096;6.062;2023-07-29T04:05:08;17.10;99.90
52899;DHT22;38763;53.096;6.062;2023-07-29T04:07:34;17.10;99.90
52899;DHT22;38763;53.096;6.062;2023-07-29T04:10:00;17.10;99.90
52899;DHT22;38763;53.096;6.062;2023-07-29T04:12:26;17.10;99.90
52899;DHT22;38763;53.096;6.062;2023-07-29T04:14:52;17.10;99.90
52899;DHT22;38763;53.096;6.062;2023-07-29T04:17:17;17.10;99.90
52899;DHT22;38763;53.096;6.062;2023-07-29T04:19:43;17.00;99.90
52899;DHT22;38763;53.096;6.062;2023-07-29T04:22:09;17.00;99.90
52899;DHT22;38763;53.096;6.062;2023-07-29T04:24:35;17.00;99.90
52899;DHT22;38763;53.096;6.062;2023-07-29T04:27:00;17.00;99.90
52899;DHT22;38763;53.096;6.062;2023-07-29T04:29:26;17.00;99.90
52899;DHT22;38763;53.096;6.062;2023-07-29T04:31:52;17.00;99.90
52899;DHT22;38763;53.096;6.062;2023-07-29T04:34:18;17.10;99.90
52899;DHT22;38763;53.096;6.062;2023-07-29T04:36:45;17.10;99.90
52899;DHT22;38763;53.096;6.062;2023-07-29T04:39:11;17.00;99.90
52899;DHT22;38763;53.096;6.062;2023-07-29T04:41:36;17.10;99.90
52899;DHT22;38763;53.096;6.062;2023-07-29T04:44:02;17.10;99.90
52899;DHT22;38763;53.096;6.062;2023-07-29T04:46:28;17.10;99.90
52899;DHT22;38763;53.096;6.062;2023-07-29T04:48:53;17.20;99.90
52899;DHT22;38763;53.096;6.062;2023-07-29T04:51:19;17.10;99.90
52899;DHT22;38763;53.096;6.062;2023-07-29T04:53:45;17.10;99.90
52899;DHT22;38763;53.096;6.062;2023-07-29T04:56:11;17.10;99.90
52899;DHT22;38763;53.096;6.062;2023-07-29T04:58:37;17.20;99.90
52899;DHT22;38763;53.096;6.062;2023-07-29T05:01:03;17.10;99.90
52899;DHT22;38763;53.096;6.062;2023-07-29T05:03:29;17.10;99.90
52899;DHT22;38763;53.096;6.062;2023-07-29T05:05:55;17.10;99.90
52899;DHT22;38763;53.096;6.062;2023-07-29T05:08:21;17.10;99.90
52899;DHT22;38763;53.096;6.062;2023-07-29T05:10:51;17.10;99.90
52899;DHT22;38763;53.096;6.062;2023-07-29T05:13:18;17.20;99.90
52899;DHT22;38763;53.096;6.062;2023-07-29T05:15:44;17.20;99.90
52899;DHT22;38763;53.096;6.062;2023-07-29T05:18:09;17.20;99.90
52899;DHT22;38763;53.096;6.062;2023-07-29T05:20:35;17.20;99.90
52899;DHT22;38763;53.096;6.062;2023-07-29T05:23:01;17.30;99.90
52899;DHT22;38763;53.096;6.062;2023-07-29T05:25:27;17.30;99.90
52899;DHT22;38763;53.096;6.062;2023-07-29T05:27:53;17.30;99.90
52899;DHT22;38763;53.096;6.062;2023-07-29T05:30:18;17.30;99.90
52899;DHT22;38763;53.096;6.062;2023-07-29T05:32:44;17.40;99.90
52899;DHT22;38763;53.096;6.062;2023-07-29T05:35:10;17.40;99.90
52899;DHT22;38763;53.096;6.062;2023-07-29T05:37:38;17.30;99.90
52899;DHT22;38763;53.096;6.062;2023-07-29T05:40:06;17.40;99.90
52899;DHT22;38763;53.096;6.062;2023-07-29T05:42:33;17.40;99.90
52899;DHT22;38763;53.096;6.062;2023-07-29T05:44:58;17.40;99.90
52899;DHT22;38763;53.096;6.062;2023-07-29T05:47:24;17.40;99.90
52899;DHT22;38763;53.096;6.062;2023-07-29T05:49:50;17.40;99.90
52899;DHT22;38763;53.096;6.062;2023-07-29T05:52:15;17.40;99.90
52899;DHT22;38763;53.096;6.062;2023-07-29T05:54:41;17.50;99.90
52899;DHT22;38763;53.096;6.062;2023-07-29T05:57:09;17.50;99.90
52899;DHT22;38763;53.096;6.062;2023-07-29T05:59:35;17.60;99.90
52899;DHT22;38763;53.096;6.062;2023-07-29T06:02:01;17.60;99.90
52899;DHT22;38763;53.096;6.062;2023-07-29T06:04:26;17.60;99.90
52899;DHT22;38763;53.096;6.062;2023-07-29T06:06:52;17.80;99.90
52899;DHT22;38763;53.096;6.062;2023-07-29T06:09:18;17.90;99.90
52899;DHT22;38763;53.096;6.062;2023-07-29T06:11:43;18.00;99.90
52899;DHT22;38763;53.096;6.062;2023-07-29T06:14:09;18.20;99.90
52899;DHT22;38763;53.096;6.062;2023-07-29T06:16:35;18.30;99.90
52899;DHT22;38763;53.096;6.062;2023-07-29T06:19:00;18.40;99.90
52899;DHT22;38763;53.096;6.062;2023-07-29T06:21:26;18.50;99.90
52899;DHT22;38763;53.096;6.062;2023-07-29T06:23:52;18.60;99.90
52899;DHT22;38763;53.096;6.062;2023-07-29T06:26:18;18.70;99.90
52899;DHT22;38763;53.096;6.062;2023-07-29T06:28:44;18.80;99.90
52899;DHT22;38763;53.096;6.062;2023-07-29T06:31:09;18.90;99.90
52899;DHT22;38763;53.096;6.062;2023-07-29T06:33:35;18.90;99.90
52899;DHT22;38763;53.096;6.062;2023-07-29T06:36:01;19.00;99.90
52899;DHT22;38763;53.096;6.062;2023-07-29T06:38:27;19.10;99.90
52899;DHT22;38763;53.096;6.062;2023-07-29T06:40:52;19.20;99.90
52899;DHT22;38763;53.096;6.062;2023-07-29T06:43:18;19.20;99.90
52899;DHT22;38763;53.096;6.062;2023-07-29T06:45:44;19.20;99.90
52899;DHT22;38763;53.096;6.062;2023-07-29T06:48:09;19.20;99.90
52899;DHT22;38763;53.096;6.062;2023-07-29T06:50:35;19.30;99.90
52899;DHT22;38763;53.096;6.062;2023-07-29T06:53:00;19.30;99.90
52899;DHT22;38763;53.096;6.062;2023-07-29T06:55:26;19.40;99.90
52899;DHT22;38763;53.096;6.062;2023-07-29T06:57:52;19.40;99.90
52899;DHT22;38763;53.096;6.062;2023-07-29T07:00:17;19.30;99.90
52899;DHT22;38763;53.096;6.062;2023-07-29T07:02:43;19.30;99.90
52899;DHT22;38763;53.096;6.062;2023-07-29T07:05:09;19.30;99.90
52899;DHT22;38763;53.096;6.062;2023-07-29T07:07:34;19.30;99.90
52899;DHT22;38763;53.096;6.062;2023-07-29T07:10:00;19.30;99.90
52899;DHT22;38763;53.096;6.062;2023-07-29T07:12:26;19.20;99.90
52899;DHT22;38763;53.096;6.062;2023-07-29T07:14:52;19.30;99.90
52899;DHT22;38763;53.096;6.062;2023-07-29T07:17:17;19.40;99.90
52899;DHT22;38763;53.096;6.062;2023-07-29T07:19:43;19.50;99.90
52899;DHT22;38763;53.096;6.062;2023-07-29T07:22:09;19.80;99.90
52899;DHT22;38763;53.096;6.062;2023-07-29T07:24:35;20.00;99.90
52899;DHT22;38763;53.096;6.062;2023-07-29T07:27:01;20.20;99.90
52899;DHT22;38763;53.096;6.062;2023-07-29T07:29:27;20.30;99.90
52899;DHT22;38763;53.096;6.062;2023-07-29T07:31:53;20.20;99.90
52899;DHT22;38763;53.096;6.062;2023-07-29T07:34:20;20.10;99.90
52899;DHT22;38763;53.096;6.062;2023-07-29T07:36:46;20.30;99.90
52899;DHT22;38763;53.096;6.062;2023-07-29T07:39:12;20.40;99.90
52899;DHT22;38763;53.096;6.062;2023-07-29T07:41:38;20.50;99.90
52899;DHT22;38763;53.096;6.062;2023-07-29T07:44:03;20.40;99.90
52899;DHT22;38763;53.096;6.062;2023-07-29T07:46:29;20.20;99.90
52899;DHT22;38763;53.096;6.062;2023-07-29T07:48:55;20.10;99.90
52899;DHT22;38763;53.096;6.062;2023-07-29T07:51:20;20.10;99.90
52899;DHT22;38763;53.096;6.062;2023-07-29T07:53:46;20.10;99.90
52899;DHT22;38763;53.096;6.062;2023-07-29T07:56:12;20.10;99.90
52899;DHT22;38763;53.096;6.062;2023-07-29T07:58:38;20.20;99.90
52899;DHT22;38763;53.096;6.062;2023-07-29T08:01:05;20.40;99.90
52899;DHT22;38763;53.096;6.062;2023-07-29T08:03:31;20.70;99.90
52899;DHT22;38763;53.096;6.062;2023-07-29T08:05:57;20.80;99.90
52899;DHT22;38763;53.096;6.062;2023-07-29T08:08:23;20.90;99.90
52899;DHT22;38763;53.096;6.062;2023-07-29T08:10:49;21.10;99.90
52899;DHT22;38763;53.096;6.062;2023-07-29T08:13:14;21.20;99.90
52899;DHT22;38763;53.096;6.062;2023-07-29T08:15:40;21.20;99.90
52899;DHT22;38763;53.096;6.062;2023-07-29T08:18:06;21.00;99.90
52899;DHT22;38763;53.096;6.062;2023-07-29T08:20:32;20.80;99.90
52899;DHT22;38763;53.096;6.062;2023-07-29T08:22:58;20.60;99.90
52899;DHT22;38763;53.096;6.062;2023-07-29T08:25:24;20.70;99.90
52899;DHT22;38763;53.096;6.062;2023-07-29T08:27:49;20.60;99.90
52899;DHT22;38763;53.096;6.062;2023-07-29T08:30:15;20.60;99.90
52899;DHT22;38763;53.096;6.062;2023-07-29T08:32:42;20.60;99.90
52899;DHT22;38763;53.096;6.062;2023-07-29T08:35:07;20.70;99.90
52899;DHT22;38763;53.096;6.062;2023-07-29T08:37:33;20.80;99.90
52899;DHT22;38763;53.096;6.062;2023-07-29T08:39:59;20.70;99.90
52899;DHT22;38763;53.096;6.062;2023-07-29T08:42:29;20.70;99.90
52899;DHT22;38763;53.096;6.062;2023-07-29T08:44:57;20.80;99.90
52899;DHT22;38763;53.096;6.062;2023-07-29T08:47:27;21.00;99.90
52899;DHT22;38763;53.096;6.062;2023-07-29T08:49:52;21.20;99.90
52899;DHT22;38763;53.096;6.062;2023-07-29T08:52:20;21.70;99.90
52899;DHT22;38763;53.096;6.062;2023-07-29T08:54:46;22.40;99.90
52899;DHT22;38763;53.096;6.062;2023-07-29T08:57:13;22.50;99.90
52899;DHT22;38763;53.096;6.062;2023-07-29T08:59:40;22.60;99.90
52899;DHT22;38763;53.096;6.062;2023-07-29T09:02:06;23.00;99.90
52899;DHT22;38763;53.096;6.062;2023-07-29T09:04:32;22.80;99.90
52899;DHT22;38763;53.096;6.062;2023-07-29T09:06:59;22.40;99.90
52899;DHT22;38763;53.096;6.062;2023-07-29T09:09:25;22.20;99.90
52899;DHT22;38763;53.096;6.062;2023-07-29T09:11:51;22.20;99.90
52899;DHT22;38763;53.096;6.062;2023-07-29T09:14:17;22.00;99.90
52899;DHT22;38763;53.096;6.062;2023-07-29T09:16:43;21.80;99.90
52899;DHT22;38763;53.096;6.062;2023-07-29T09:19:09;21.80;99.90
52899;DHT22;38763;53.096;6.062;2023-07-29T09:21:39;21.70;99.90
52899;DHT22;38763;53.096;6.062;2023-07-29T09:24:05;21.70;99.90
52899;DHT22;38763;53.096;6.062;2023-07-29T09:26:30;21.80;99.90
52899;DHT22;38763;53.096;6.062;2023-07-29T09:28:58;21.80;99.90
52899;DHT22;38763;53.096;6.062;2023-07-29T09:31:25;21.80;99.90
52899;DHT22;38763;53.096;6.062;2023-07-29T09:33:59;21.90;99.90
52899;DHT22;38763;53.096;6.062;2023-07-29T09:36:25;22.00;99.90
52899;DHT22;38763;53.096;6.062;2023-07-29T09:38:55;21.90;99.90
52899;DHT22;38763;53.096;6.062;2023-07-29T09:41:26;21.90;99.90
52899;DHT22;38763;53.096;6.062;2023-07-29T09:43:59;21.90;99.90
52899;DHT22;38763;53.096;6.062;2023-07-29T09:46:27;22.00;99.90
52899;DHT22;38763;53.096;6.062;2023-07-29T09:48:57;22.00;99.90
52899;DHT22;38763;53.096;6.062;2023-07-29T09:51:23;22.00;99.90
52899;DHT22;38763;53.096;6.062;2023-07-29T09:53:50;22.30;99.90
52899;DHT22;38763;53.096;6.062;2023-07-29T09:56:16;22.70;99.90
52899;DHT22;38763;53.096;6.062;2023-07-29T09:58:45;22.70;99.90
52899;DHT22;38763;53.096;6.062;2023-07-29T10:01:12;22.70;99.90
52899;DHT22;38763;53.096;6.062;2023-07-29T10:03:38;22.60;99.90
52899;DHT22;38763;53.096;6.062;2023-07-29T10:06:05;22.40;99.90
52899;DHT22;38763;53.096;6.062;2023-07-29T10:08:31;22.50;99.90
52899;DHT22;38763;53.096;6.062;2023-07-29T10:11:16;22.40;99.90
52899;DHT22;38763;53.096;6.062;2023-07-29T10:13:43;22.70;99.90
52899;DHT22;38763;53.096;6.062;2023-07-29T10:16:10;22.80;99.90
52899;DHT22;38763;53.096;6.062;2023-07-29T10:18:36;22.60;99.90
52899;DHT22;38763;53.096;6.062;2023-07-29T10:21:03;22.30;99.90
52899;DHT22;38763;53.096;6.062;2023-07-29T10:23:34;22.00;99.90
52899;DHT22;38763;53.096;6.062;2023-07-29T10:26:04;21.90;99.90
52899;DHT22;38763;53.096;6.062;2023-07-29T10:28:31;21.60;99.90
52899;DHT22;38763;53.096;6.062;2023-07-29T10:30:58;21.40;99.90
52899;DHT22;38763;53.096;6.062;2023-07-29T10:33:25;21.00;99.90
52899;DHT22;38763;53.096;6.062;2023-07-29T10:35:53;20.70;99.90
52899;DHT22;38763;53.096;6.062;2023-07-29T10:38:21;20.40;99.90
52899;DHT22;38763;53.096;6.062;2023-07-29T10:40:52;20.20;99.90
52899;DHT22;38763;53.096;6.062;2023-07-29T10:43:40;20.00;99.90
52899;DHT22;38763;53.096;6.062;2023-07-29T10:48:56;20.00;99.90
52899;DHT22;38763;53.096;6.062;2023-07-29T10:51:30;20.30;99.90
52899;DHT22;38763;53.096;6.062;2023-07-29T10:54:01;20.70;99.90
52899;DHT22;38763;53.096;6.062;2023-07-29T10:56:29;20.90;99.90
52899;DHT22;38763;53.096;6.062;2023-07-29T10:58:56;21.00;99.90
52899;DHT22;38763;53.096;6.062;2023-07-29T11:01:30;21.10;99.90
52899;DHT22;38763;53.096;6.062;2023-07-29T11:04:46;20.90;99.90
52899;DHT22;38763;53.096;6.062;2023-07-29T11:17:36;21.20;99.90
52899;DHT22;38763;53.096;6.062;2023-07-29T11:20:03;21.20;99.90
52899;DHT22;38763;53.096;6.062;2023-07-29T11:22:29;21.20;99.90
52899;DHT22;38763;53.096;6.062;2023-07-29T11:24:55;21.40;99.90
52899;DHT22;38763;53.096;6.062;2023-07-29T11:27:21;21.30;99.90
52899;DHT22;38763;53.096;6.062;2023-07-29T11:29:47;21.20;99.90
52899;DHT22;38763;53.096;6.062;2023-07-29T11:32:13;21.20;99.90
52899;DHT22;38763;53.096;6.062;2023-07-29T11:34:39;21.20;99.90
52899;DHT22;38763;53.096;6.062;2023-07-29T11:37:09;21.10;99.90
52899;DHT22;38763;53.096;6.062;2023-07-29T11:39:42;21.00;99.90
52899;DHT22;38763;53.096;6.062;2023-07-29T11:42:11;21.00;99.90
52899;DHT22;38763;53.096;6.062;2023-07-29T11:44:37;20.80;99.90
52899;DHT22;38763;53.096;6.062;2023-07-29T11:47:11;20.80;99.90
52899;DHT22;38763;53.096;6.062;2023-07-29T11:49:39;20.80;99.90
52899;DHT22;38763;53.096;6.062;2023-07-29T11:52:08;21.00;99.90
52899;DHT22;38763;53.096;6.062;2023-07-29T11:54:38;21.00;99.90
52899;DHT22;38763;53.096;6.062;2023-07-29T11:57:08;21.00;99.90
52899;DHT22;38763;53.096;6.062;2023-07-29T11:59:35;20.90;99.90
52899;DHT22;38763;53.096;6.062;2023-07-29T12:02:02;20.80;99.90
52899;DHT22;38763;53.096;6.062;2023-07-29T12:04:30;21.10;99.90
52899;DHT22;38763;53.096;6.062;2023-07-29T12:06:57;21.20;99.90
52899;DHT22;38763;53.096;6.062;2023-07-29T12:09:23;21.30;99.90
52899;DHT22;38763;53.096;6.062;2023-07-29T12:11:48;21.40;99.90
52899;DHT22;38763;53.096;6.062;2023-07-29T12:14:16;21.40;99.90
52899;DHT22;38763;53.096;6.062;2023-07-29T12:16:47;21.50;99.90
52899;DHT22;38763;53.096;6.062;2023-07-29T12:19:13;21.50;99.90
52899;DHT22;38763;53.096;6.062;2023-07-29T12:21:42;21.60;99.90
52899;DHT22;38763;53.096;6.062;2023-07-29T12:24:08;21.50;99.90
52899;DHT22;38763;53.096;6.062;2023-07-29T12:26:36;21.60;99.90
52899;DHT22;38763;53.096;6.062;2023-07-29T12:29:31;21.40;99.90
52899;DHT22;38763;53.096;6.062;2023-07-29T12:32:03;21.40;99.90
52899;DHT22;38763;53.096;6.062;2023-07-29T12:34:30;21.50;99.90
52899;DHT22;38763;53.096;6.062;2023-07-29T12:36:58;21.50;99.90
52899;DHT22;38763;53.096;6.062;2023-07-29T12:39:25;21.60;99.90
52899;DHT22;38763;53.096;6.062;2023-07-29T12:41:53;21.70;99.90
52899;DHT22;38763;53.096;6.062;2023-07-29T12:44:19;21.80;99.90
52899;DHT22;38763;53.096;6.062;2023-07-29T12:46:45;21.80;99.90
52899;DHT22;38763;53.096;6.062;2023-07-29T12:49:11;21.80;99.90
52899;DHT22;38763;53.096;6.062;2023-07-29T12:51:37;21.90;99.90
52899;DHT22;38763;53.096;6.062;2023-07-29T12:54:04;21.80;99.90
52899;DHT22;38763;53.096;6.062;2023-07-29T12:56:30;21.80;99.90
52899;DHT22;38763;53.096;6.062;2023-07-29T12:58:57;21.80;99.90
52899;DHT22;38763;53.096;6.062;2023-07-29T13:01:26;21.80;99.90
52899;DHT22;38763;53.096;6.062;2023-07-29T13:03:52;21.90;99.90
52899;DHT22;38763;53.096;6.062;2023-07-29T13:06:18;21.90;99.90
52899;DHT22;38763;53.096;6.062;2023-07-29T13:08:44;21.70;99.90
52899;DHT22;38763;53.096;6.062;2023-07-29T13:11:10;21.60;99.90
52899;DHT22;38763;53.096;6.062;2023-07-29T13:13:36;21.70;99.90
52899;DHT22;38763;53.096;6.062;2023-07-29T13:16:02;21.70;99.90
52899;DHT22;38763;53.096;6.062;2023-07-29T13:18:28;21.70;99.90
52899;DHT22;38763;53.096;6.062;2023-07-29T13:20:54;21.60;99.90
52899;DHT22;38763;53.096;6.062;2023-07-29T13:23:20;21.80;99.90
52899;DHT22;38763;53.096;6.062;2023-07-29T13:25:46;21.80;99.90
52899;DHT22;38763;53.096;6.062;2023-07-29T13:28:12;22.00;99.90
52899;DHT22;38763;53.096;6.062;2023-07-29T13:30:40;22.10;99.90
52899;DHT22;38763;53.096;6.062;2023-07-29T13:33:07;22.10;99.90
52899;DHT22;38763;53.096;6.062;2023-07-29T13:35:33;22.20;99.90
52899;DHT22;38763;53.096;6.062;2023-07-29T13:37:58;22.30;99.90
52899;DHT22;38763;53.096;6.062;2023-07-29T13:40:24;22.20;99.90
52899;DHT22;38763;53.096;6.062;2023-07-29T13:42:50;22.20;99.90
52899;DHT22;38763;53.096;6.062;2023-07-29T13:45:15;22.30;99.90
52899;DHT22;38763;53.096;6.062;2023-07-29T13:47:41;22.30;99.90
52899;DHT22;38763;53.096;6.062;2023-07-29T13:50:07;22.30;99.90
52899;DHT22;38763;53.096;6.062;2023-07-29T13:52:33;22.30;99.90
52899;DHT22;38763;53.096;6.062;2023-07-29T13:54:59;22.40;99.90
52899;DHT22;38763;53.096;6.062;2023-07-29T13:57:25;22.50;99.90
52899;DHT22;38763;53.096;6.062;2023-07-29T13:59:50;22.50;99.90
52899;DHT22;38763;53.096;6.062;2023-07-29T14:02:16;22.40;99.90
52899;DHT22;38763;53.096;6.062;2023-07-29T14:04:42;22.60;99.90
52899;DHT22;38763;53.096;6.062;2023-07-29T14:07:07;22.70;99.90
52899;DHT22;38763;53.096;6.062;2023-07-29T14:09:33;22.80;99.90
52899;DHT22;38763;53.096;6.062;2023-07-29T14:11:59;22.80;99.90
52899;DHT22;38763;53.096;6.062;2023-07-29T14:14:24;22.70;99.90
52899;DHT22;38763;53.096;6.062;2023-07-29T14:16:50;22.60;99.90
52899;DHT22;38763;53.096;6.062;2023-07-29T14:19:15;22.60;99.90
52899;DHT22;38763;53.096;6.062;2023-07-29T14:21:41;22.50;99.90
52899;DHT22;38763;53.096;6.062;2023-07-29T14:24:07;22.50;99.90
52899;DHT22;38763;53.096;6.062;2023-07-29T14:26:32;22.60;99.90
52899;DHT22;38763;53.096;6.062;2023-07-29T14:28:58;22.60;99.90
52899;DHT22;38763;53.096;6.062;2023-07-29T14:31:24;22.60;99.90
52899;DHT22;38763;53.096;6.062;2023-07-29T14:33:49;22.50;99.90
52899;DHT22;38763;53.096;6.062;2023-07-29T14:36:15;22.40;99.90
52899;DHT22;38763;53.096;6.062;2023-07-29T14:38:41;22.50;99.90
52899;DHT22;38763;53.096;6.062;2023-07-29T14:41:08;22.40;99.90
52899;DHT22;38763;53.096;6.062;2023-07-29T14:43:34;22.30;99.90
52899;DHT22;38763;53.096;6.062;2023-07-29T14:46:01;22.40;99.90
52899;DHT22;38763;53.096;6.062;2023-07-29T14:48:27;22.50;99.90
52899;DHT22;38763;53.096;6.062;2023-07-29T14:50:52;22.50;99.90
52899;DHT22;38763;53.096;6.062;2023-07-29T14:53:18;22.60;99.90
52899;DHT22;38763;53.096;6.062;2023-07-29T14:55:45;22.60;99.90
52899;DHT22;38763;53.096;6.062;2023-07-29T14:58:10;22.60;99.90
52899;DHT22;38763;53.096;6.062;2023-07-29T15:00:36;22.60;99.90
52899;DHT22;38763;53.096;6.062;2023-07-29T15:03:02;22.50;99.90
52899;DHT22;38763;53.096;6.062;2023-07-29T15:05:28;22.50;99.90
52899;DHT22;38763;53.096;6.062;2023-07-29T15:07:54;22.30;99.90
52899;DHT22;38763;53.096;6.062;2023-07-29T15:10:20;22.20;99.90
52899;DHT22;38763;53.096;6.062;2023-07-29T15:12:46;22.30;99.90
52899;DHT22;38763;53.096;6.062;2023-07-29T15:15:12;22.40;99.90
52899;DHT22;38763;53.096;6.062;2023-07-29T15:17:38;22.40;99.90
52899;DHT22;38763;53.096;6.062;2023-07-29T15:20:04;22.50;99.90
52899;DHT22;38763;53.096;6.062;2023-07-29T15:22:30;22.50;99.90
52899;DHT22;38763;53.096;6.062;2023-07-29T15:24:58;22.50;99.90
52899;DHT22;38763;53.096;6.062;2023-07-29T15:27:28;22.40;99.90
52899;DHT22;38763;53.096;6.062;2023-07-29T15:29:54;22.40;99.90
52899;DHT22;38763;53.096;6.062;2023-07-29T15:32:20;22.40;99.90
52899;DHT22;38763;53.096;6.062;2023-07-29T15:34:46;22.40;99.90
52899;DHT22;38763;53.096;6.062;2023-07-29T15:37:12;22.40;99.90
52899;DHT22;38763;53.096;6.062;2023-07-29T15:39:37;22.50;99.90
52899;DHT22;38763;53.096;6.062;2023-07-29T15:42:03;22.50;99.90
52899;DHT22;38763;53.096;6.062;2023-07-29T15:44:29;22.50;99.90
52899;DHT22;38763;53.096;6.062;2023-07-29T15:46:55;22.50;99.90
52899;DHT22;38763;53.096;6.062;2023-07-29T15:49:22;22.50;99.90